Time;durP1;ratioP1;P1;durP2;ratioP2;P2;SDS_P1;SDS_P2;PMS_P1;PMS_P2;Temp;Humidity;BMP_temperature;BMP_pressure;BME280_temperature;BME280_humidity;BME280_pressure;Samples;Min_cycle;Max_cycle;Signal;HPM_P1;HPM_P2
2022/11/01 00:00:07;;;;;;;3.70;1.60;;;;;;;;;;4937061;29;20475;-39
2022/11/01 00:02:37;;;;;;;3.92;2.35;;;;;;;;;;4936949;29;20142;-39
2022/11/01 00:05:03;;;;;;;2.20;1.58;;;;;;;;;;4937230;29;20123;-39
2022/11/01 00:07:28;;;;;;;2.92;1.13;;;;;;;;;;4936875;29;20047;-39
2022/11/01 00:09:54;;;;;;;3.97;1.30;;;;;;;;;;4937088;29;20028;-39
2022/11/01 00:12:19;;;;;;;8.43;2.10;;;;;;;;;;4936740;29;20074;-39
2022/11/01 00:14:45;;;;;;;4.30;1.63;;;;;;;;;;4936888;29;20027;-39
2022/11/01 00:17:10;;;;;;;3.65;2.05;;;;;;;;;;4936553;29;20098;-39
2022/11/01 00:19:36;;;;;;;5.25;1.25;;;;;;;;;;4936801;29;20035;-39
2022/11/01 00:22:01;;;;;;;1.75;0.95;;;;;;;;;;4936593;29;20044;-39
2022/11/01 00:24:26;;;;;;;7.65;2.03;;;;;;;;;;4936511;29;20032;-39
2022/11/01 00:26:52;;;;;;;6.18;2.40;;;;;;;;;;4936557;29;20015;-39
2022/11/01 00:29:17;;;;;;;2.50;0.98;;;;;;;;;;4936628;29;20035;-40
2022/11/01 00:31:43;;;;;;;3.95;1.65;;;;;;;;;;4936463;29;20020;-39
2022/11/01 00:34:08;;;;;;;1.30;1.10;;;;;;;;;;4936376;29;20043;-39
2022/11/01 00:36:34;;;;;;;3.85;1.52;;;;;;;;;;4936149;29;20151;-39
2022/11/01 00:39:00;;;;;;;3.63;1.20;;;;;;;;;;4936339;29;20036;-40
2022/11/01 00:41:25;;;;;;;1.30;1.00;;;;;;;;;;4936109;29;20050;-40
2022/11/01 00:43:51;;;;;;;3.58;1.17;;;;;;;;;;4936524;29;20119;-39
2022/11/01 00:46:17;;;;;;;2.95;1.55;;;;;;;;;;4936364;29;20055;-39
2022/11/01 00:48:42;;;;;;;1.83;1.00;;;;;;;;;;4936205;29;20450;-41
2022/11/01 00:51:08;;;;;;;4.50;2.78;;;;;;;;;;4936272;29;20027;-39
2022/11/01 00:53:33;;;;;;;6.20;1.17;;;;;;;;;;4935942;29;20032;-40
2022/11/01 00:56:00;;;;;;;5.97;2.55;;;;;;;;;;4936306;29;20023;-39
2022/11/01 00:58:25;;;;;;;7.80;3.00;;;;;;;;;;4935866;29;20050;-39
2022/11/01 01:00:50;;;;;;;3.58;0.88;;;;;;;;;;4936240;29;20031;-39
2022/11/01 01:03:16;;;;;;;4.85;2.05;;;;;;;;;;4935756;29;20082;-39
2022/11/01 01:05:41;;;;;;;3.70;1.70;;;;;;;;;;4935859;29;20019;-41
2022/11/01 01:08:07;;;;;;;1.48;1.23;;;;;;;;;;4935896;29;20035;-40
2022/11/01 01:10:34;;;;;;;4.95;2.08;;;;;;;;;;4935759;29;20027;-39
2022/11/01 01:12:59;;;;;;;1.98;1.23;;;;;;;;;;4935697;29;20498;-39
2022/11/01 01:15:24;;;;;;;6.63;2.00;;;;;;;;;;4935848;29;20024;-39
2022/11/01 01:17:51;;;;;;;6.30;1.52;;;;;;;;;;4935660;29;20038;-40
2022/11/01 01:20:17;;;;;;;4.65;1.70;;;;;;;;;;4935480;29;20020;-39
2022/11/01 01:22:42;;;;;;;4.40;1.98;;;;;;;;;;4935499;29;20066;-40
2022/11/01 01:25:08;;;;;;;8.30;1.45;;;;;;;;;;4935479;29;20028;-39
2022/11/01 01:27:34;;;;;;;3.15;1.50;;;;;;;;;;4935498;29;20043;-40
2022/11/01 01:29:59;;;;;;;2.35;1.60;;;;;;;;;;4935785;29;20020;-39
2022/11/01 01:32:24;;;;;;;2.30;1.38;;;;;;;;;;4935300;29;20490;-39
2022/11/01 01:34:50;;;;;;;3.25;1.08;;;;;;;;;;4935158;29;20138;-39
2022/11/01 01:37:15;;;;;;;8.45;1.52;;;;;;;;;;4935508;29;20073;-39
2022/11/01 01:39:41;;;;;;;6.60;2.08;;;;;;;;;;4935544;29;20030;-39
2022/11/01 01:42:15;;;;;;;2.33;1.42;;;;;;;;;;4935106;29;20039;-39
2022/11/01 01:44:55;;;;;;;5.20;1.40;;;;;;;;;;4935233;29;20078;-40
2022/11/01 01:47:20;;;;;;;5.82;1.63;;;;;;;;;;4935026;29;20548;-40
2022/11/01 01:49:47;;;;;;;9.43;1.95;;;;;;;;;;4934972;29;20031;-39
2022/11/01 01:52:13;;;;;;;6.70;1.42;;;;;;;;;;4935030;29;20111;-39
2022/11/01 01:54:38;;;;;;;2.97;1.10;;;;;;;;;;4935236;29;20148;-40
2022/11/01 01:57:04;;;;;;;4.43;1.20;;;;;;;;;;4934923;29;20036;-39
2022/11/01 01:59:30;;;;;;;2.30;1.63;;;;;;;;;;4935125;29;20023;-40
2022/11/01 02:01:57;;;;;;;5.85;1.10;;;;;;;;;;4934755;29;20046;-40
2022/11/01 02:04:38;;;;;;;4.82;1.38;;;;;;;;;;4935032;29;20410;-38
2022/11/01 02:07:04;;;;;;;1.75;1.48;;;;;;;;;;4932824;29;20078;-39
2022/11/01 02:09:30;;;;;;;4.10;1.55;;;;;;;;;;4934673;29;20047;-39
2022/11/01 02:11:56;;;;;;;6.43;1.83;;;;;;;;;;4934742;29;20087;-39
2022/11/01 02:14:22;;;;;;;1.42;1.17;;;;;;;;;;4934899;29;20023;-39
2022/11/01 02:16:53;;;;;;;3.85;1.70;;;;;;;;;;4934863;29;20031;-40
2022/11/01 02:19:18;;;;;;;1.70;1.60;;;;;;;;;;4934779;29;20107;-39
2022/11/01 02:21:44;;;;;;;6.70;2.55;;;;;;;;;;4934562;29;20529;-39
2022/11/01 02:24:18;;;;;;;4.10;2.03;;;;;;;;;;4934930;29;20210;-39
2022/11/01 02:27:02;;;;;;;5.25;1.65;;;;;;;;;;4934469;29;20035;-39
2022/11/01 02:29:48;;;;;;;2.42;1.83;;;;;;;;;;4934356;29;20040;-40
2022/11/01 02:32:32;;;;;;;3.15;1.63;;;;;;;;;;4904420;29;20036;-39
2022/11/01 02:34:59;;;;;;;3.50;1.92;;;;;;;;;;4934196;29;20058;-39
2022/11/01 02:37:31;;;;;;;2.25;1.55;;;;;;;;;;4934328;29;20027;-40
2022/11/01 02:40:00;;;;;;;2.35;1.55;;;;;;;;;;4934381;29;20039;-39
2022/11/01 02:42:30;;;;;;;6.28;1.80;;;;;;;;;;4934123;29;20102;-40
2022/11/01 02:45:28;;;;;;;6.53;2.20;;;;;;;;;;4934455;29;20046;-40
2022/11/01 02:47:55;;;;;;;3.38;1.30;;;;;;;;;;4902014;29;20044;-40
2022/11/01 02:50:20;;;;;;;2.60;1.35;;;;;;;;;;4934419;29;20035;-39
2022/11/01 02:52:46;;;;;;;1.95;1.65;;;;;;;;;;4934145;29;20039;-39
2022/11/01 02:55:28;;;;;;;5.25;1.85;;;;;;;;;;4934006;29;20368;-40
2022/11/01 02:57:54;;;;;;;5.85;1.80;;;;;;;;;;4934415;29;20043;-39
2022/11/01 03:00:21;;;;;;;2.55;1.40;;;;;;;;;;4934016;29;20035;-39
2022/11/01 03:02:48;;;;;;;6.38;1.42;;;;;;;;;;4934060;29;20044;-39
2022/11/01 03:05:18;;;;;;;1.98;1.20;;;;;;;;;;4934210;29;20379;-40
2022/11/01 03:07:46;;;;;;;5.35;1.55;;;;;;;;;;4934035;29;20034;-39
2022/11/01 03:10:11;;;;;;;8.32;2.38;;;;;;;;;;4933996;29;20112;-39
2022/11/01 03:12:42;;;;;;;8.80;1.50;;;;;;;;;;4934156;29;20035;-39
2022/11/01 03:15:19;;;;;;;1.92;1.02;;;;;;;;;;4933846;29;20040;-39
2022/11/01 03:18:11;;;;;;;2.45;1.35;;;;;;;;;;4936165;29;20478;-39
2022/11/01 03:20:47;;;;;;;12.90;1.67;;;;;;;;;;4934951;29;20126;-39
2022/11/01 03:23:19;;;;;;;4.88;0.85;;;;;;;;;;4937704;29;20119;-39
2022/11/01 03:25:46;;;;;;;3.17;1.08;;;;;;;;;;4937675;29;20036;-39
2022/11/01 03:28:21;;;;;;;4.35;1.70;;;;;;;;;;4937760;29;20180;-40
2022/11/01 03:30:57;;;;;;;6.30;1.52;;;;;;;;;;4937661;29;20043;-39
2022/11/01 03:33:24;;;;;;;1.40;0.82;;;;;;;;;;4937508;29;20470;-39
2022/11/01 03:35:52;;;;;;;1.65;1.20;;;;;;;;;;4937211;29;20486;-39
2022/11/01 03:38:20;;;;;;;3.13;1.13;;;;;;;;;;4937601;29;20039;-39
2022/11/01 03:40:52;;;;;;;4.45;1.98;;;;;;;;;;4937736;29;20091;-39
2022/11/01 03:43:18;;;;;;;1.55;0.80;;;;;;;;;;4937438;29;20075;-40
2022/11/01 03:45:44;;;;;;;8.68;1.65;;;;;;;;;;4937249;29;20199;-40
2022/11/01 03:48:09;;;;;;;2.13;1.33;;;;;;;;;;4937564;29;20035;-39
2022/11/01 03:50:35;;;;;;;5.22;1.63;;;;;;;;;;4937287;29;20099;-39
2022/11/01 03:53:00;;;;;;;6.22;1.95;;;;;;;;;;4937246;29;20375;-39
2022/11/01 03:55:26;;;;;;;1.85;1.30;;;;;;;;;;4937336;29;20062;-39
2022/11/01 03:57:56;;;;;;;2.72;0.90;;;;;;;;;;4937118;29;20442;-39
2022/11/01 04:00:21;;;;;;;2.15;1.70;;;;;;;;;;4937087;29;20034;-40
2022/11/01 04:02:47;;;;;;;7.60;1.02;;;;;;;;;;4936986;29;20119;-39
2022/11/01 04:05:12;;;;;;;2.92;1.48;;;;;;;;;;4936936;29;20030;-40
2022/11/01 04:07:38;;;;;;;7.75;1.50;;;;;;;;;;4951670;29;20094;-39
2022/11/01 04:10:03;;;;;;;5.40;1.35;;;;;;;;;;4937135;29;20011;-39
2022/11/01 04:12:29;;;;;;;5.88;1.75;;;;;;;;;;4936719;29;20095;-39
2022/11/01 04:20:37;;;;;;;2.17;1.60;;;;;;;;;;4937014;29;20534;-39
2022/11/01 04:23:04;;;;;;;5.85;1.02;;;;;;;;;;4936566;29;20047;-39
2022/11/01 04:25:30;;;;;;;2.38;1.88;;;;;;;;;;4936462;29;20103;-40
2022/11/01 04:27:56;;;;;;;7.03;1.65;;;;;;;;;;4936634;29;20118;-39
2022/11/01 04:30:25;;;;;;;11.98;1.92;;;;;;;;;;4935862;29;20123;-39
2022/11/01 04:32:50;;;;;;;3.47;1.70;;;;;;;;;;4936760;29;20661;-39
2022/11/01 04:35:16;;;;;;;3.90;1.83;;;;;;;;;;4936135;29;20055;-39
2022/11/01 04:37:42;;;;;;;4.00;1.20;;;;;;;;;;4936465;29;20071;-39
2022/11/01 04:40:08;;;;;;;2.38;1.85;;;;;;;;;;4936331;29;20086;-39
2022/11/01 04:42:34;;;;;;;4.25;1.80;;;;;;;;;;4936465;29;20406;-40
2022/11/01 04:44:59;;;;;;;6.28;1.40;;;;;;;;;;4936553;29;20023;-39
2022/11/01 04:47:25;;;;;;;9.70;2.72;;;;;;;;;;4936379;29;20115;-39
2022/11/01 04:49:50;;;;;;;6.65;1.75;;;;;;;;;;4936159;29;20028;-39
2022/11/01 04:52:16;;;;;;;3.67;1.63;;;;;;;;;;4936110;29;20119;-39
2022/11/01 04:54:41;;;;;;;3.70;1.40;;;;;;;;;;4936009;29;20028;-40
2022/11/01 04:57:06;;;;;;;3.70;1.42;;;;;;;;;;4936320;29;20070;-39
2022/11/01 04:59:31;;;;;;;2.60;1.40;;;;;;;;;;4935985;29;20091;-39
2022/11/01 05:01:57;;;;;;;6.80;1.73;;;;;;;;;;4935835;29;20412;-39
2022/11/01 05:04:22;;;;;;;2.92;1.30;;;;;;;;;;4936171;29;20016;-39
2022/11/01 05:06:48;;;;;;;6.55;1.80;;;;;;;;;;4935804;29;20478;-39
2022/11/01 05:09:13;;;;;;;6.57;1.17;;;;;;;;;;4936087;29;20539;-39
2022/11/01 05:11:38;;;;;;;2.85;1.33;;;;;;;;;;4935836;29;20179;-39
2022/11/01 05:14:04;;;;;;;6.00;1.70;;;;;;;;;;4935725;29;20034;-39
2022/11/01 05:16:30;;;;;;;3.15;1.50;;;;;;;;;;4935574;29;20039;-39
2022/11/01 05:18:55;;;;;;;3.88;1.17;;;;;;;;;;4935724;29;20024;-40
2022/11/01 05:21:21;;;;;;;3.28;1.60;;;;;;;;;;4935703;29;20023;-39
2022/11/01 05:23:47;;;;;;;1.98;1.15;;;;;;;;;;4935605;29;20471;-39
2022/11/01 05:26:13;;;;;;;3.85;1.25;;;;;;;;;;4935383;29;20035;-40
2022/11/01 05:28:38;;;;;;;4.88;2.08;;;;;;;;;;4950166;29;20031;-40
2022/11/01 05:31:04;;;;;;;3.50;1.70;;;;;;;;;;4935470;29;20475;-39
2022/11/01 05:33:29;;;;;;;4.53;2.53;;;;;;;;;;4935235;29;20023;-41
2022/11/01 05:35:55;;;;;;;2.53;1.13;;;;;;;;;;4935164;29;20095;-39
2022/11/01 05:38:20;;;;;;;4.88;1.50;;;;;;;;;;4935392;29;20045;-39
2022/11/01 05:40:46;;;;;;;11.50;1.33;;;;;;;;;;4934594;29;20611;-39
2022/11/01 05:43:11;;;;;;;7.15;1.67;;;;;;;;;;4935374;29;20394;-39
2022/11/01 05:45:37;;;;;;;4.50;1.85;;;;;;;;;;4935200;29;20086;-39
2022/11/01 05:48:04;;;;;;;3.17;1.33;;;;;;;;;;4935040;29;20524;-39
2022/11/01 05:50:29;;;;;;;8.35;1.35;;;;;;;;;;4935463;29;20039;-39
2022/11/01 05:53:02;;;;;;;3.10;1.27;;;;;;;;;;4935054;29;20470;-38
2022/11/01 05:55:28;;;;;;;2.85;1.30;;;;;;;;;;4934889;29;20066;-39
2022/11/01 05:57:56;;;;;;;1.67;1.05;;;;;;;;;;4934930;29;20051;-39
2022/11/01 06:00:22;;;;;;;1.88;1.02;;;;;;;;;;4934803;29;20059;-39
2022/11/01 06:02:47;;;;;;;3.40;1.90;;;;;;;;;;4934826;29;20069;-39
2022/11/01 06:05:13;;;;;;;1.65;1.10;;;;;;;;;;4934955;29;20449;-39
2022/11/01 06:07:38;;;;;;;6.57;2.70;;;;;;;;;;4935053;29;20027;-39
2022/11/01 06:10:04;;;;;;;4.10;1.30;;;;;;;;;;4934992;29;20034;-39
2022/11/01 06:12:30;;;;;;;3.08;0.93;;;;;;;;;;4934644;29;20024;-40
2022/11/01 06:14:55;;;;;;;3.35;1.58;;;;;;;;;;4934561;29;20110;-39
2022/11/01 06:17:21;;;;;;;6.30;1.35;;;;;;;;;;4934634;29;20054;-41
2022/11/01 06:19:46;;;;;;;5.85;1.75;;;;;;;;;;4949301;29;20079;-39
2022/11/01 06:22:12;;;;;;;2.45;1.25;;;;;;;;;;4934448;29;20028;-39
2022/11/01 06:24:37;;;;;;;3.70;1.58;;;;;;;;;;4934419;29;20043;-39
2022/11/01 06:27:03;;;;;;;1.67;1.27;;;;;;;;;;4934448;29;20034;-39
2022/11/01 06:29:28;;;;;;;5.85;1.67;;;;;;;;;;4934332;29;20119;-39
2022/11/01 06:31:54;;;;;;;3.03;1.60;;;;;;;;;;4934798;29;20585;-39
2022/11/01 06:34:19;;;;;;;4.97;1.52;;;;;;;;;;4934481;29;20459;-39
2022/11/01 06:36:44;;;;;;;3.35;1.48;;;;;;;;;;4934191;29;20110;-39
2022/11/01 06:39:10;;;;;;;3.10;1.90;;;;;;;;;;4934633;29;20031;-39
2022/11/01 06:41:36;;;;;;;4.75;1.95;;;;;;;;;;4933981;29;20046;-39
2022/11/01 06:44:01;;;;;;;6.22;1.77;;;;;;;;;;4934345;29;20505;-39
2022/11/01 06:46:27;;;;;;;2.20;1.73;;;;;;;;;;4934051;29;20011;-39
2022/11/01 06:48:52;;;;;;;4.57;1.42;;;;;;;;;;4934540;29;20035;-39
2022/11/01 06:51:18;;;;;;;2.78;1.90;;;;;;;;;;4948612;29;20119;-40
2022/11/01 06:53:43;;;;;;;2.38;1.75;;;;;;;;;;4934105;29;20462;-39
2022/11/01 06:56:09;;;;;;;3.78;1.90;;;;;;;;;;4934148;29;20020;-39
2022/11/01 06:58:34;;;;;;;2.90;1.55;;;;;;;;;;4934144;29;20538;-39
2022/11/01 07:01:01;;;;;;;4.25;2.25;;;;;;;;;;4934085;29;20023;-39
2022/11/01 07:03:27;;;;;;;6.22;2.47;;;;;;;;;;4933929;29;20501;-39
2022/11/01 07:05:52;;;;;;;4.78;1.98;;;;;;;;;;4934009;29;20028;-39
2022/11/01 07:08:18;;;;;;;2.05;1.13;;;;;;;;;;4934238;29;20028;-39
2022/11/01 07:10:43;;;;;;;1.88;1.00;;;;;;;;;;4934348;29;20028;-39
2022/11/01 07:13:10;;;;;;;4.22;1.30;;;;;;;;;;4933987;29;20094;-39
2022/11/01 07:15:36;;;;;;;9.77;1.95;;;;;;;;;;4933829;29;20169;-39
2022/11/01 07:18:03;;;;;;;3.92;1.13;;;;;;;;;;4934238;29;20068;-39
2022/11/01 07:20:29;;;;;;;2.65;1.52;;;;;;;;;;4933992;29;20102;-39
2022/11/01 07:23:01;;;;;;;5.57;1.67;;;;;;;;;;4933809;29;20093;-39
2022/11/01 07:25:27;;;;;;;3.30;1.13;;;;;;;;;;4933819;29;20554;-39
2022/11/01 07:27:53;;;;;;;1.38;1.27;;;;;;;;;;4933946;29;20032;-39
2022/11/01 07:30:19;;;;;;;2.20;1.23;;;;;;;;;;4933679;29;20031;-39
2022/11/01 07:32:44;;;;;;;3.72;1.20;;;;;;;;;;4933884;29;20034;-39
2022/11/01 07:35:09;;;;;;;3.55;1.05;;;;;;;;;;4933697;29;20043;-39
2022/11/01 07:37:35;;;;;;;2.38;0.85;;;;;;;;;;4933672;29;20035;-38
2022/11/01 07:40:02;;;;;;;1.63;0.75;;;;;;;;;;4933803;29;20032;-39
2022/11/01 07:42:27;;;;;;;7.28;2.15;;;;;;;;;;4933655;29;20043;-39
2022/11/01 07:44:53;;;;;;;2.83;1.20;;;;;;;;;;4933690;29;20035;-40
2022/11/01 07:47:18;;;;;;;2.85;1.50;;;;;;;;;;4933689;29;20048;-39
2022/11/01 07:49:44;;;;;;;3.55;2.10;;;;;;;;;;4933723;29;20028;-39
2022/11/01 07:52:09;;;;;;;2.60;1.67;;;;;;;;;;4933718;29;20360;-39
2022/11/01 07:54:35;;;;;;;2.53;1.33;;;;;;;;;;4933742;29;20666;-40
2022/11/01 07:57:00;;;;;;;13.88;1.33;;;;;;;;;;4932503;29;20102;-39
2022/11/01 07:59:25;;;;;;;3.50;1.23;;;;;;;;;;4933785;29;20478;-39
2022/11/01 08:01:51;;;;;;;1.85;1.02;;;;;;;;;;4916399;29;20063;-39
2022/11/01 08:04:16;;;;;;;6.97;1.90;;;;;;;;;;4934706;29;20047;-39
2022/11/01 08:06:42;;;;;;;1.55;1.05;;;;;;;;;;4936885;29;20052;-40
2022/11/01 08:09:07;;;;;;;1.73;0.68;;;;;;;;;;4937229;29;20819;-39
2022/11/01 08:11:33;;;;;;;4.72;1.77;;;;;;;;;;4951632;29;20102;-39
2022/11/01 08:13:58;;;;;;;1.38;0.85;;;;;;;;;;4936805;29;20103;-38
2022/11/01 08:16:24;;;;;;;3.25;1.20;;;;;;;;;;4936993;29;20114;-39
2022/11/01 08:18:49;;;;;;;2.67;1.48;;;;;;;;;;4936882;29;20476;-39
2022/11/01 08:21:17;;;;;;;3.35;0.90;;;;;;;;;;4936570;29;20047;-39
2022/11/01 08:23:46;;;;;;;4.18;1.17;;;;;;;;;;4935362;29;20475;-39
2022/11/01 08:26:11;;;;;;;4.28;3.17;;;;;;;;;;4936555;29;20015;-39
2022/11/01 08:28:37;;;;;;;11.18;1.27;;;;;;;;;;4936532;29;20364;-39
2022/11/01 08:31:07;;;;;;;2.88;1.75;;;;;;;;;;4936841;29;20020;-39
2022/11/01 08:33:32;;;;;;;12.63;1.55;;;;;;;;;;4936612;29;20031;-39
2022/11/01 08:35:58;;;;;;;1.88;1.45;;;;;;;;;;4936336;29;20572;-39
2022/11/01 08:38:23;;;;;;;1.90;1.30;;;;;;;;;;4936389;29;20027;-39
2022/11/01 08:40:49;;;;;;;4.43;1.15;;;;;;;;;;4936611;29;20024;-39
2022/11/01 08:43:14;;;;;;;3.08;1.40;;;;;;;;;;4936269;29;20490;-39
2022/11/01 08:45:40;;;;;;;6.40;1.77;;;;;;;;;;4936120;29;20059;-39
2022/11/01 08:48:05;;;;;;;2.35;1.08;;;;;;;;;;4936550;29;20036;-39
2022/11/01 08:50:32;;;;;;;5.75;1.83;;;;;;;;;;4936098;29;20075;-39
2022/11/01 08:52:58;;;;;;;1.85;1.05;;;;;;;;;;4936269;29;20047;-39
2022/11/01 08:55:23;;;;;;;4.13;1.20;;;;;;;;;;4936021;29;20378;-39
2022/11/01 08:57:49;;;;;;;2.53;1.00;;;;;;;;;;4936353;29;20031;-39
2022/11/01 09:00:15;;;;;;;2.40;1.25;;;;;;;;;;4936160;29;20036;-40
2022/11/01 09:02:41;;;;;;;1.45;0.77;;;;;;;;;;4935886;29;20561;-40
2022/11/01 09:05:07;;;;;;;3.65;1.52;;;;;;;;;;4935882;29;20106;-39
2022/11/01 09:07:36;;;;;;;1.38;0.82;;;;;;;;;;4935775;29;20075;-40
2022/11/01 09:10:02;;;;;;;1.38;0.80;;;;;;;;;;4935897;29;20525;-39
2022/11/01 09:12:28;;;;;;;5.15;1.30;;;;;;;;;;4935809;29;20532;-39
2022/11/01 09:14:53;;;;;;;1.38;0.98;;;;;;;;;;4935518;29;20024;-39
2022/11/01 09:17:19;;;;;;;4.82;0.95;;;;;;;;;;4935686;29;20032;-39
2022/11/01 09:19:44;;;;;;;3.55;1.48;;;;;;;;;;4935686;29;20035;-39
2022/11/01 09:22:09;;;;;;;5.88;1.52;;;;;;;;;;4935556;29;20044;-39
2022/11/01 09:24:35;;;;;;;4.15;0.98;;;;;;;;;;4935474;29;20024;-39
2022/11/01 09:27:01;;;;;;;5.30;1.95;;;;;;;;;;4935573;29;20553;-39
2022/11/01 09:29:26;;;;;;;2.92;1.48;;;;;;;;;;4935369;29;20020;-39
2022/11/01 09:31:52;;;;;;;1.85;0.98;;;;;;;;;;4935677;29;20024;-39
2022/11/01 09:34:18;;;;;;;2.20;1.08;;;;;;;;;;4935351;29;20083;-39
2022/11/01 09:36:46;;;;;;;2.35;0.73;;;;;;;;;;4935828;29;20051;-39
2022/11/01 09:39:15;;;;;;;5.72;1.08;;;;;;;;;;4935540;29;20032;-39
2022/11/01 09:41:46;;;;;;;3.03;1.55;;;;;;;;;;4935484;29;20375;-39
2022/11/01 09:44:46;;;;;;;5.68;1.33;;;;;;;;;;4935228;29;20063;-39
2022/11/01 09:47:15;;;;;;;3.42;1.58;;;;;;;;;;4902960;29;20048;-40
2022/11/01 09:49:42;;;;;;;9.27;1.40;;;;;;;;;;4935360;29;20035;-39
2022/11/01 09:52:13;;;;;;;3.60;1.45;;;;;;;;;;4935084;29;20441;-39
2022/11/01 09:54:39;;;;;;;3.22;1.27;;;;;;;;;;4934962;29;20110;-39
2022/11/01 09:57:05;;;;;;;3.97;0.93;;;;;;;;;;4935286;29;20106;-39
2022/11/01 09:59:30;;;;;;;5.10;0.75;;;;;;;;;;4935104;29;20031;-39
2022/11/01 10:02:24;;;;;;;4.38;1.90;;;;;;;;;;4949624;29;20046;-39
2022/11/01 10:05:01;;;;;;;6.35;1.67;;;;;;;;;;4913194;29;20079;-39
2022/11/01 10:07:37;;;;;;;1.80;1.10;;;;;;;;;;4934800;29;20028;-39
2022/11/01 10:10:38;;;;;;;3.08;0.95;;;;;;;;;;4949485;29;20059;-39
2022/11/01 10:13:16;;;;;;;2.35;1.38;;;;;;;;;;4860278;29;20045;-39
2022/11/01 10:15:44;;;;;;;6.63;1.35;;;;;;;;;;4927302;29;20063;-39
2022/11/01 10:18:10;;;;;;;1.27;1.17;;;;;;;;;;4933475;29;20374;-39
2022/11/01 10:20:37;;;;;;;5.15;1.48;;;;;;;;;;4934566;29;20028;-39
2022/11/01 10:23:03;;;;;;;2.42;1.10;;;;;;;;;;4934520;29;20039;-40
2022/11/01 10:25:30;;;;;;;2.95;1.13;;;;;;;;;;4934512;29;20082;-40
2022/11/01 10:28:14;;;;;;;1.67;1.13;;;;;;;;;;4934227;29;20171;-40
2022/11/01 10:30:45;;;;;;;3.08;1.65;;;;;;;;;;4934465;29;20031;-39
2022/11/01 10:33:30;;;;;;;2.60;1.20;;;;;;;;;;4949115;29;20028;-40
2022/11/01 10:36:09;;;;;;;2.83;1.48;;;;;;;;;;4934184;29;20051;-39
2022/11/01 10:38:36;;;;;;;5.75;1.92;;;;;;;;;;4949361;29;20086;-39
2022/11/01 10:41:08;;;;;;;5.47;1.20;;;;;;;;;;4949133;29;20027;-39
2022/11/01 10:43:41;;;;;;;3.63;1.50;;;;;;;;;;4934140;29;20040;-39
2022/11/01 10:46:12;;;;;;;2.47;1.10;;;;;;;;;;4934341;29;20040;-39
2022/11/01 10:48:43;;;;;;;3.58;1.60;;;;;;;;;;4934064;29;20513;-44
2022/11/01 10:51:11;;;;;;;6.88;1.38;;;;;;;;;;4948970;29;20032;-39
2022/11/01 10:53:41;;;;;;;4.20;1.25;;;;;;;;;;4934185;29;20043;-40
2022/11/01 10:59:46;;;;;;;4.28;2.10;;;;;;;;;;4934479;29;20587;-40
2022/11/01 11:02:35;;;;;;;3.78;1.77;;;;;;;;;;4934291;29;20046;-39
2022/11/01 11:05:00;;;;;;;3.22;1.38;;;;;;;;;;4922729;29;20076;-40
2022/11/01 11:07:28;;;;;;;3.33;1.70;;;;;;;;;;4934064;29;20055;-40
2022/11/01 11:09:54;;;;;;;4.10;1.45;;;;;;;;;;4934005;29;20036;-40
2022/11/01 11:12:20;;;;;;;7.35;2.58;;;;;;;;;;4933944;29;20205;-40
2022/11/01 11:14:47;;;;;;;9.32;2.22;;;;;;;;;;4934009;29;20031;-39
2022/11/01 11:17:19;;;;;;;2.38;2.17;;;;;;;;;;4933877;29;20051;-40
2022/11/01 11:19:45;;;;;;;5.65;2.10;;;;;;;;;;4934038;29;20028;-40
2022/11/01 11:22:11;;;;;;;4.65;2.03;;;;;;;;;;4934181;29;20032;-39
2022/11/01 11:24:38;;;;;;;8.60;3.50;;;;;;;;;;4933724;29;20043;-40
2022/11/01 11:27:09;;;;;;;3.50;2.15;;;;;;;;;;4934135;29;20462;-40
2022/11/01 11:29:37;;;;;;;5.22;2.38;;;;;;;;;;4933776;29;20102;-40
2022/11/01 11:32:05;;;;;;;4.68;3.00;;;;;;;;;;4933914;29;20031;-39
2022/11/01 11:34:37;;;;;;;10.02;2.25;;;;;;;;;;4933752;29;20055;-40
2022/11/01 11:37:04;;;;;;;9.25;3.80;;;;;;;;;;4934126;29;20398;-40
2022/11/01 11:39:30;;;;;;;10.35;4.22;;;;;;;;;;4936868;29;20068;-39
2022/11/01 11:42:09;;;;;;;7.65;3.95;;;;;;;;;;4937468;29;20078;-39
2022/11/01 11:44:37;;;;;;;7.60;3.75;;;;;;;;;;4937536;29;20039;-40
2022/11/01 11:47:03;;;;;;;5.95;3.30;;;;;;;;;;4937645;29;20020;-40
2022/11/01 11:49:28;;;;;;;12.35;4.65;;;;;;;;;;4937264;29;20406;-40
2022/11/01 11:51:54;;;;;;;18.58;6.30;;;;;;;;;;4937328;29;20051;-40
2022/11/01 11:54:36;;;;;;;12.48;4.32;;;;;;;;;;4937301;29;20051;-40
2022/11/01 11:57:10;;;;;;;16.52;5.30;;;;;;;;;;4937215;29;20055;-40
2022/11/01 11:59:36;;;;;;;10.57;6.10;;;;;;;;;;4937103;29;20479;-40
2022/11/01 12:02:03;;;;;;;15.35;5.88;;;;;;;;;;4937022;29;20043;-39
2022/11/01 12:04:49;;;;;;;15.55;6.13;;;;;;;;;;4936899;29;20063;-40
2022/11/01 12:07:31;;;;;;;13.70;5.85;;;;;;;;;;4926621;29;20099;-40
2022/11/01 12:10:00;;;;;;;11.55;6.07;;;;;;;;;;4936984;29;20042;-40
2022/11/01 12:12:30;;;;;;;14.80;6.88;;;;;;;;;;4936901;29;20094;-39
2022/11/01 12:14:57;;;;;;;17.05;6.40;;;;;;;;;;4936762;29;20372;-39
2022/11/01 12:17:42;;;;;;;12.57;7.18;;;;;;;;;;4951476;29;20355;-40
2022/11/01 12:20:11;;;;;;;16.83;7.55;;;;;;;;;;4936818;29;20031;-39
2022/11/01 12:22:38;;;;;;;15.35;6.85;;;;;;;;;;4936529;29;20382;-39
2022/11/01 12:25:05;;;;;;;17.20;7.20;;;;;;;;;;4936663;29;20031;-40
2022/11/01 12:27:33;;;;;;;18.23;8.23;;;;;;;;;;4936843;29;20046;-39
2022/11/01 12:30:03;;;;;;;15.77;7.65;;;;;;;;;;4936803;29;20035;-39
2022/11/01 12:32:36;;;;;;;15.73;7.10;;;;;;;;;;4936443;29;20042;-40
2022/11/01 12:35:04;;;;;;;15.60;7.25;;;;;;;;;;4936437;29;20517;-39
2022/11/01 12:37:48;;;;;;;17.98;8.10;;;;;;;;;;4936319;29;20043;-39
2022/11/01 12:40:28;;;;;;;18.27;7.63;;;;;;;;;;4936570;29;20032;-40
2022/11/01 12:42:57;;;;;;;18.60;8.77;;;;;;;;;;4936349;29;20047;-40
2022/11/01 12:45:41;;;;;;;18.33;9.27;;;;;;;;;;4936234;29;20470;-39
2022/11/01 12:48:10;;;;;;;20.13;9.45;;;;;;;;;;4936369;29;20118;-39
2022/11/01 12:50:41;;;;;;;21.92;9.68;;;;;;;;;;4935590;29;20027;-39
2022/11/01 12:53:14;;;;;;;17.08;8.20;;;;;;;;;;4936243;29;20031;-39
2022/11/01 12:55:41;;;;;;;16.65;8.90;;;;;;;;;;4936426;29;20423;-41
2022/11/01 12:58:14;;;;;;;19.15;9.70;;;;;;;;;;4936377;29;20098;-40
2022/11/01 13:00:48;;;;;;;20.77;8.45;;;;;;;;;;4935991;29;20122;-41
2022/11/01 13:03:20;;;;;;;14.60;7.10;;;;;;;;;;4936066;29;20051;-39
2022/11/01 13:06:00;;;;;;;27.92;10.38;;;;;;;;;;4935957;29;20031;-39
2022/11/01 13:08:35;;;;;;;22.30;10.15;;;;;;;;;;4935849;29;20030;-40
2022/11/01 13:11:05;;;;;;;22.80;8.25;;;;;;;;;;4935858;29;20031;-40
2022/11/01 13:13:30;;;;;;;18.15;8.40;;;;;;;;;;4935753;29;20517;-39
2022/11/01 13:16:08;;;;;;;21.70;11.77;;;;;;;;;;4935712;29;20159;-39
2022/11/01 13:18:34;;;;;;;19.60;10.18;;;;;;;;;;4935638;29;20034;-39
2022/11/01 13:21:08;;;;;;;16.38;8.45;;;;;;;;;;4935665;29;20378;-39
2022/11/01 13:23:34;;;;;;;21.35;9.88;;;;;;;;;;4935763;29;20044;-39
2022/11/01 13:26:01;;;;;;;21.20;10.23;;;;;;;;;;4935451;29;20094;-39
2022/11/01 13:28:42;;;;;;;15.60;9.30;;;;;;;;;;4935459;29;20119;-39
2022/11/01 13:31:10;;;;;;;15.70;9.48;;;;;;;;;;4950197;29;20036;-39
2022/11/01 13:33:44;;;;;;;18.63;9.93;;;;;;;;;;4935306;29;20510;-39
2022/11/01 13:36:30;;;;;;;19.10;9.00;;;;;;;;;;4935100;29;20102;-39
2022/11/01 13:39:05;;;;;;;15.77;8.07;;;;;;;;;;4935429;29;20032;-40
2022/11/01 13:41:39;;;;;;;16.90;8.35;;;;;;;;;;4935076;29;20039;-39
2022/11/01 13:44:15;;;;;;;18.80;9.55;;;;;;;;;;4935447;29;20067;-39
2022/11/01 13:46:49;;;;;;;21.40;9.98;;;;;;;;;;4935286;29;20035;-39
2022/11/01 13:49:15;;;;;;;17.80;8.88;;;;;;;;;;4935191;29;20074;-40
2022/11/01 13:51:43;;;;;;;19.13;8.88;;;;;;;;;;4935226;29;20059;-40
2022/11/01 13:54:18;;;;;;;21.27;9.43;;;;;;;;;;4935038;29;20035;-39
2022/11/01 13:57:02;;;;;;;20.77;10.88;;;;;;;;;;4935188;29;20040;-40
2022/11/01 13:59:36;;;;;;;18.50;9.13;;;;;;;;;;4935153;29;20382;-39
2022/11/01 14:02:20;;;;;;;18.00;8.82;;;;;;;;;;4933977;28;20401;-39
2022/11/01 14:05:01;;;;;;;15.30;7.35;;;;;;;;;;4935137;29;20176;-39
2022/11/01 14:07:29;;;;;;;16.30;8.35;;;;;;;;;;4934751;29;20039;-39
2022/11/01 14:09:55;;;;;;;19.17;8.50;;;;;;;;;;4934762;29;20023;-39
2022/11/01 14:12:35;;;;;;;13.77;7.13;;;;;;;;;;4934657;29;20508;-40
2022/11/01 14:15:12;;;;;;;20.30;8.10;;;;;;;;;;4934660;29;20031;-39
2022/11/01 14:17:54;;;;;;;16.85;6.43;;;;;;;;;;4934864;29;20405;-40
2022/11/01 14:20:30;;;;;;;15.10;7.95;;;;;;;;;;4934608;29;20846;-39
2022/11/01 14:22:56;;;;;;;16.35;6.80;;;;;;;;;;4934821;29;20402;-42
2022/11/01 14:25:21;;;;;;;14.02;6.97;;;;;;;;;;4934394;29;20035;-39
2022/11/01 14:27:48;;;;;;;15.43;7.78;;;;;;;;;;4934624;29;20035;-39
2022/11/01 14:30:30;;;;;;;17.60;8.73;;;;;;;;;;4934471;29;20027;-40
2022/11/01 14:32:57;;;;;;;14.13;8.05;;;;;;;;;;4934590;29;20036;-40
2022/11/01 14:35:25;;;;;;;14.32;7.47;;;;;;;;;;4934170;29;20379;-40
2022/11/01 14:37:51;;;;;;;13.23;7.25;;;;;;;;;;4934460;29;20034;-40
2022/11/01 14:40:17;;;;;;;14.85;5.95;;;;;;;;;;4934673;29;20036;-40
2022/11/01 14:42:43;;;;;;;13.52;6.93;;;;;;;;;;4934094;29;20039;-40
2022/11/01 14:45:25;;;;;;;14.75;7.57;;;;;;;;;;4934249;29;20483;-40
2022/11/01 14:47:51;;;;;;;24.60;8.93;;;;;;;;;;4934271;29;20031;-39
2022/11/01 14:50:26;;;;;;;17.58;9.02;;;;;;;;;;4934333;29;20028;-40
2022/11/01 14:53:05;;;;;;;20.30;8.73;;;;;;;;;;4934443;29;20471;-40
2022/11/01 14:55:35;;;;;;;17.33;8.50;;;;;;;;;;4934057;29;20123;-39
2022/11/01 14:58:27;;;;;;;19.23;8.98;;;;;;;;;;4934174;29;20063;-39